createdAt,value
2023-02-09T00:01:47.688Z,21.67
2023-02-09T00:07:01.772Z,17.57
2023-02-09T00:12:23.823Z,19.50
2023-02-09T00:17:33.471Z,17.77
2023-02-09T00:22:50.194Z,19.93
2023-02-09T00:27:59.293Z,18.10
2023-02-09T00:33:01.178Z,18.07
2023-02-09T00:38:06.087Z,15.93
2023-02-09T00:43:11.995Z,18.20
2023-02-09T00:48:13.730Z,17.83
2023-02-09T00:53:18.770Z,17.10
2023-02-09T00:58:25.702Z,15.80
2023-02-09T01:03:33.790Z,18.83
2023-02-09T01:08:47.539Z,24.37
2023-02-09T01:13:51.875Z,18.17
2023-02-09T01:18:56.582Z,16.83
2023-02-09T01:24:07.353Z,20.00
2023-02-09T01:29:19.106Z,17.57
2023-02-09T01:34:24.385Z,18.37
2023-02-09T01:39:26.368Z,18.10
2023-02-09T01:45:02.531Z,15.80
2023-02-09T01:50:04.517Z,14.33
2023-02-09T01:55:23.565Z,14.43
2023-02-09T02:00:33.694Z,14.00
2023-02-09T02:05:38.681Z,18.50
2023-02-09T02:10:41.291Z,16.90
2023-02-09T02:15:46.590Z,17.40
2023-02-09T02:21:24.461Z,15.97
2023-02-09T02:26:58.111Z,18.80
2023-02-09T02:32:33.995Z,17.40
2023-02-09T02:38:19.925Z,17.83
2023-02-09T02:43:44.189Z,12.83
2023-02-09T02:49:33.191Z,17.03
2023-02-09T02:55:02.597Z,17.37
2023-02-09T03:00:24.397Z,12.90
2023-02-09T03:05:28.480Z,17.77
2023-02-09T03:10:35.835Z,17.63
2023-02-09T03:16:16.463Z,14.97
2023-02-09T03:21:45.849Z,22.57
2023-02-09T03:26:58.733Z,19.13
2023-02-09T03:32:03.549Z,17.37
2023-02-09T03:37:05.494Z,16.83
2023-02-09T03:42:07.420Z,16.03
2023-02-09T03:47:17.321Z,18.43
2023-02-09T03:52:24.744Z,18.40
2023-02-09T03:57:39.942Z,19.60
2023-02-09T04:02:44.269Z,15.30
2023-02-09T04:07:46.137Z,18.37
2023-02-09T04:12:48.190Z,15.73
2023-02-09T04:17:50.877Z,16.90
2023-02-09T04:23:04.913Z,16.20
2023-02-09T04:28:09.443Z,18.20
2023-02-09T04:33:11.397Z,15.23
2023-02-09T04:38:13.158Z,16.03
2023-02-09T04:43:14.993Z,18.53
2023-02-09T04:48:29.838Z,19.60
2023-02-09T04:53:37.339Z,19.90
2023-02-09T04:58:57.835Z,15.93
2023-02-09T05:04:18.919Z,19.33
2023-02-09T05:09:20.690Z,18.20
2023-02-09T05:14:47.953Z,20.30
2023-02-09T05:19:50.153Z,16.43
2023-02-09T05:24:52.025Z,14.50
2023-02-09T05:29:53.925Z,18.33
2023-02-09T05:34:55.721Z,17.03
2023-02-09T05:39:57.473Z,18.63
2023-02-09T05:44:59.279Z,17.80
2023-02-09T05:50:08.220Z,18.30
2023-02-09T05:55:09.978Z,17.60
2023-02-09T06:00:18.167Z,21.90
2023-02-09T06:05:21.948Z,15.67
2023-02-09T06:10:42.054Z,17.13
2023-02-09T06:15:50.392Z,19.27
2023-02-09T06:20:58.469Z,17.97
2023-02-09T06:26:00.236Z,16.83
2023-02-09T06:31:02.192Z,17.33
2023-02-09T06:36:13.632Z,21.27
2023-02-09T06:41:15.329Z,21.60
2023-02-09T06:46:17.253Z,16.90
2023-02-09T06:51:19.011Z,17.80
2023-02-09T06:56:21.009Z,16.53
2023-02-09T07:01:28.866Z,18.57
2023-02-09T07:06:30.863Z,21.30
2023-02-09T07:11:35.057Z,23.63
2023-02-09T07:16:37.998Z,24.77
2023-02-09T07:21:39.729Z,17.93
2023-02-09T07:26:41.616Z,21.77
2023-02-09T07:31:45.909Z,23.07
2023-02-09T07:36:50.023Z,20.33
2023-02-09T07:41:52.056Z,19.10
2023-02-09T07:46:53.955Z,20.93
2023-02-09T07:51:55.672Z,31.17
2023-02-09T07:56:57.564Z,31.53
2023-02-09T08:01:59.399Z,21.10
2023-02-09T08:07:01.134Z,22.03
2023-02-09T08:12:05.149Z,18.00
2023-02-09T08:17:21.651Z,20.50
2023-02-09T08:22:26.746Z,23.10
2023-02-09T08:27:28.747Z,18.67
2023-02-09T08:32:31.104Z,19.63
2023-02-09T08:37:33.420Z,19.13
2023-02-09T08:42:35.310Z,21.63
2023-02-09T08:47:38.971Z,18.60
2023-02-09T08:52:40.886Z,22.67
2023-02-09T08:57:44.645Z,23.93
2023-02-09T09:02:46.541Z,20.07
2023-02-09T09:07:51.164Z,19.77
2023-02-09T09:12:55.582Z,19.83
2023-02-09T09:17:58.223Z,19.87
2023-02-09T09:23:01.228Z,18.70
2023-02-09T09:28:05.202Z,17.20
2023-02-09T09:33:15.645Z,18.47
2023-02-09T09:38:18.798Z,17.10
2023-02-09T09:43:29.007Z,17.37
2023-02-09T09:48:43.521Z,15.63
2023-02-09T09:53:58.011Z,16.67
2023-02-09T09:59:01.122Z,20.67
2023-02-09T10:04:12.708Z,14.57
2023-02-09T10:09:36.282Z,16.73
2023-02-09T10:14:38.313Z,15.47
2023-02-09T10:19:50.388Z,16.60
2023-02-09T10:24:54.221Z,16.33
2023-02-09T10:30:06.040Z,15.83
2023-02-09T10:35:26.834Z,16.60
2023-02-09T10:40:30.171Z,16.27
2023-02-09T10:45:45.348Z,18.57
2023-02-09T10:50:59.291Z,16.63
2023-02-09T11:02:53.465Z,14.33
2023-02-09T11:08:14.509Z,15.10
2023-02-09T11:13:25.299Z,15.17
2023-02-09T11:18:36.416Z,15.60
2023-02-09T11:24:01.570Z,19.37
2023-02-09T11:29:45.350Z,16.93
2023-02-09T11:35:01.214Z,14.93
2023-02-09T11:40:32.076Z,16.77
2023-02-09T11:45:51.751Z,12.93
2023-02-09T11:51:12.657Z,15.30
2023-02-09T11:56:20.015Z,16.10
2023-02-09T12:01:35.021Z,14.53
2023-02-09T12:06:44.294Z,19.20
2023-02-09T12:11:55.413Z,20.20
2023-02-09T12:17:05.941Z,14.93
2023-02-09T12:22:39.805Z,16.17
2023-02-09T12:28:04.819Z,14.43
2023-02-09T12:33:30.081Z,18.97
2023-02-09T12:38:53.617Z,16.67
2023-02-09T12:44:12.749Z,16.50
2023-02-09T12:49:16.756Z,13.87
2023-02-09T12:54:41.729Z,14.87
2023-02-09T13:00:01.534Z,19.57
2023-02-09T13:05:44.668Z,15.10
2023-02-09T13:11:27.896Z,14.60
2023-02-09T13:16:29.733Z,12.30
2023-02-09T13:21:42.243Z,14.87
2023-02-09T13:26:57.487Z,14.43
2023-02-09T13:32:20.347Z,15.83
2023-02-09T13:43:20.297Z,16.93
2023-02-09T13:48:45.002Z,12.83
2023-02-09T13:54:09.137Z,15.40
2023-02-09T13:59:22.202Z,14.17
2023-02-09T14:04:34.598Z,16.13
2023-02-09T14:10:14.748Z,12.53
2023-02-09T14:15:38.154Z,12.67
2023-02-09T14:20:41.223Z,15.63
2023-02-09T14:31:50.851Z,16.97
2023-02-09T14:37:09.915Z,15.30
2023-02-09T14:42:50.414Z,14.27
2023-02-09T14:48:21.129Z,14.00
2023-02-09T14:53:53.922Z,13.83
2023-02-09T14:59:01.545Z,14.13
2023-02-09T15:04:05.893Z,12.63
2023-02-09T15:15:19.073Z,14.53
2023-02-09T15:20:36.405Z,14.27
2023-02-09T15:25:43.078Z,14.63
2023-02-09T15:49:16.460Z,18.43
2023-02-09T15:54:27.760Z,21.47
2023-02-09T15:59:34.010Z,50.03
2023-02-09T16:04:43.312Z,49.03
2023-02-09T16:09:54.514Z,26.00
2023-02-09T16:14:58.884Z,17.60
2023-02-09T16:20:03.052Z,19.60
2023-02-09T16:25:29.201Z,15.77
2023-02-09T16:30:44.210Z,18.37
2023-02-09T16:36:25.547Z,17.87
2023-02-09T16:41:53.757Z,17.53
2023-02-09T16:46:57.091Z,17.20
2023-02-09T16:52:22.133Z,16.07
2023-02-09T16:57:27.254Z,19.90
2023-02-09T17:02:36.858Z,20.80
2023-02-09T17:07:53.610Z,14.67
2023-02-09T17:13:39.302Z,15.20
2023-02-09T17:19:19.682Z,19.13
2023-02-09T17:30:06.505Z,27.20
2023-02-09T17:36:22.270Z,29.50
2023-02-09T17:41:46.387Z,22.70
2023-02-09T17:52:58.516Z,19.87
2023-02-09T17:58:18.274Z,24.77
2023-02-09T18:03:49.117Z,18.47
2023-02-09T18:08:57.852Z,23.43
2023-02-09T18:20:28.511Z,17.43
2023-02-09T18:25:51.591Z,21.83
2023-02-09T18:30:58.685Z,18.80
2023-02-09T18:36:24.130Z,18.53
2023-02-09T18:43:41.899Z,15.77
2023-02-09T18:59:47.911Z,18.47
2023-02-09T19:05:38.266Z,19.83
2023-02-09T19:10:59.007Z,19.93
2023-02-09T19:16:18.906Z,17.20
2023-02-09T19:21:31.413Z,18.47
2023-02-09T19:26:40.628Z,19.67
2023-02-09T19:31:46.513Z,18.20
2023-02-09T19:36:51.103Z,18.70
2023-02-09T19:42:00.882Z,20.30
2023-02-09T19:47:13.231Z,18.10
2023-02-09T19:52:15.065Z,18.40
2023-02-09T19:57:20.598Z,19.40
2023-02-09T20:07:48.870Z,35.47
2023-02-09T20:12:59.206Z,27.77
2023-02-09T20:18:23.502Z,18.80
2023-02-09T20:24:01.163Z,24.07
2023-02-09T20:29:13.650Z,26.87
2023-02-09T20:34:20.958Z,20.00
2023-02-09T20:40:13.133Z,23.53
2023-02-09T20:58:39.313Z,21.60
2023-02-09T21:11:02.276Z,24.57
2023-02-09T21:16:31.188Z,53.43
2023-02-09T21:22:05.160Z,24.97
2023-02-09T21:27:33.762Z,34.00
2023-02-09T21:33:00.577Z,23.07
2023-02-09T21:44:27.498Z,27.27
2023-02-09T21:49:42.886Z,47.73
2023-02-09T21:55:21.454Z,30.63
2023-02-09T22:00:24.435Z,34.53
2023-02-09T22:05:39.015Z,28.60
2023-02-09T22:10:56.475Z,32.27
2023-02-09T22:22:15.522Z,30.50
2023-02-09T22:27:34.928Z,33.60
2023-02-09T22:32:39.503Z,32.07
2023-02-09T22:37:52.880Z,32.37
2023-02-09T22:42:54.609Z,27.70
2023-02-09T22:48:14.589Z,33.10
2023-02-09T22:53:50.263Z,33.10
2023-02-09T22:59:23.329Z,36.37
2023-02-09T23:05:15.272Z,38.23
2023-02-09T23:10:23.903Z,30.63
2023-02-09T23:15:48.091Z,38.70
2023-02-09T23:20:58.302Z,37.20
2023-02-09T23:31:36.202Z,35.00
2023-02-09T23:36:44.454Z,37.30
2023-02-09T23:41:58.349Z,38.70
2023-02-09T23:47:08.556Z,34.77
2023-02-09T23:52:32.594Z,35.17
2023-02-09T23:57:46.111Z,38.80
